Viking Queen — WDB9919 — position and weather

sailwx.info

Track history (hours):
 
Tides and Currents Weather Stations Pressure Air Temp Water Temp Dewpoint Dewpoint Depression Visibility Wind Speed Wind Dir Waves Ship Positions

Viking Queen

Owner: American River Transportation Company, St Louis, MO. More information available from US FCC via Universal Licensing System and Coast Guard Vessel Documentation Center.

Last reported at 2016-Feb-06 03:25 UTC. Time now 2016-Feb-08 10:14 UTC.
Position N 31°57' W 091°12'.

; draft 3.2 m.

Type: Towing. MMSI: 366985050.

Date/timePositionNaut miles runAvg speedWind from/ knotsBaromVisibWave heightAir tempDewpointWater temp
2016-Feb-06 03:25N 31°57' W 091°12'7 7.7
2016-Feb-06 02:33N 32°00' W 091°05'8 7.5
2016-Feb-06 01:33N 32°08' W 091°06'1 0.7
2016-Feb-06 00:34N 32°08' W 091°05'6 6.4
2016-Feb-05 23:33N 32°12' W 090°59'8 7.5
2016-Feb-05 22:33N 32°19' W 090°55'6 6.0
2016-Feb-05 21:34N 32°22' W 091°00'7 6.6
2016-Feb-05 20:33N 32°27' W 091°05'7 7.4
2016-Feb-05 19:33N 32°34' W 091°07'6 5.7
2016-Feb-05 18:28N 32°41' W 091°06'  
2016-Jan-28 19:31N 32°46' W 091°09'6 5.1
2016-Jan-28 18:25N 32°43' W 091°03'7 4.0
2016-Jan-28 16:33N 32°38' W 091°09'6 5.8
2016-Jan-28 15:34N 32°32' W 091°07'5 5.4
2016-Jan-28 14:33N 32°27' W 091°05'5 5.4
2016-Jan-28 13:34N 32°24' W 090°60'3 3.0
2016-Jan-28 12:34N 32°21' W 090°59'4 4.0
2016-Jan-28 11:34N 32°19' W 090°55'6 5.6
2016-Jan-28 10:34N 32°14' W 090°59'5 5.4
2016-Jan-28 09:33N 32°09' W 091°00'5 4.5
2016-Jan-28 08:34N 32°08' W 091°05'5 4.8
2016-Jan-28 07:33N 32°03' W 091°04'5 4.4
2016-Jan-28 06:29N 31°59' W 091°07'  
Track history (hours):
 
Tides and Currents Weather Stations Pressure Air Temp Water Temp Dewpoint Dewpoint Depression Visibility Wind Speed Wind Dir Waves Ship Positions

Viking Queen

Owner: American River Transportation Company, St Louis, MO. More information available from US FCC via Universal Licensing System and Coast Guard Vessel Documentation Center.

Last reported at 2016-Feb-06 03:25 UTC. Time now 2016-Feb-08 10:14 UTC.
Position N 31°57' W 091°12'.

; draft 3.2 m.

Type: Towing. MMSI: 366985050.

Date/timePositionNaut miles runAvg speedWind from/ knotsBaromVisibWave heightAir tempDewpointWater temp
2016-Feb-06 03:25N 31°57' W 091°12'7 7.7
2016-Feb-06 02:33N 32°00' W 091°05'8 7.5
2016-Feb-06 01:33N 32°08' W 091°06'1 0.7
2016-Feb-06 00:34N 32°08' W 091°05'6 6.4
2016-Feb-05 23:33N 32°12' W 090°59'8 7.5
2016-Feb-05 22:33N 32°19' W 090°55'6 6.0
2016-Feb-05 21:34N 32°22' W 091°00'7 6.6
2016-Feb-05 20:33N 32°27' W 091°05'7 7.4
2016-Feb-05 19:33N 32°34' W 091°07'6 5.7
2016-Feb-05 18:28N 32°41' W 091°06'  
2016-Jan-28 19:31N 32°46' W 091°09'6 5.1
2016-Jan-28 18:25N 32°43' W 091°03'7 4.0
2016-Jan-28 16:33N 32°38' W 091°09'6 5.8
2016-Jan-28 15:34N 32°32' W 091°07'5 5.4
2016-Jan-28 14:33N 32°27' W 091°05'5 5.4
2016-Jan-28 13:34N 32°24' W 090°60'3 3.0
2016-Jan-28 12:34N 32°21' W 090°59'4 4.0
2016-Jan-28 11:34N 32°19' W 090°55'6 5.6
2016-Jan-28 10:34N 32°14' W 090°59'5 5.4
2016-Jan-28 09:33N 32°09' W 091°00'5 4.5
2016-Jan-28 08:34N 32°08' W 091°05'5 4.8
2016-Jan-28 07:33N 32°03' W 091°04'5 4.4
2016-Jan-28 06:29N 31°59' W 091°07'  

Dump ship's entire track history